Time;durP1;ratioP1;P1;durP2;ratioP2;P2;SDS_P1;SDS_P2;PMS_P1;PMS_P2;Temp;Humidity;BMP_temperature;BMP_pressure;BME280_temperature;BME280_humidity;BME280_pressure;Samples;Min_cycle;Max_cycle;Signal;HPM_P1;HPM_P2
2022/10/28 00:01:06;;;;;;;23.15;9.68;;;17.10;99.90;;;;;;5119662;28;20051;-71
2022/10/28 00:03:36;;;;;;;15.25;7.50;;;17.10;99.90;;;;;;5118946;28;20097;-71
2022/10/28 00:06:10;;;;;;;14.23;7.45;;;17.10;99.90;;;;;;5119396;28;20035;-71
2022/10/28 00:08:36;;;;;;;15.52;8.07;;;17.10;99.90;;;;;;5119154;28;20046;-71
2022/10/28 00:11:07;;;;;;;14.07;7.95;;;17.10;99.90;;;;;;5119704;28;20324;-71
2022/10/28 00:13:32;;;;;;;13.65;8.10;;;17.10;99.90;;;;;;5119389;28;20059;-71
2022/10/28 00:16:26;;;;;;;17.35;7.57;;;17.00;99.90;;;;;;5118292;28;20035;-71
2022/10/28 00:18:53;;;;;;;16.25;8.48;;;16.90;99.90;;;;;;5116446;28;20108;-72
2022/10/28 00:21:24;;;;;;;15.75;7.85;;;16.90;99.90;;;;;;5119120;28;20035;-72
2022/10/28 00:23:50;;;;;;;21.02;9.45;;;17.00;99.90;;;;;;5119038;28;20186;-71
2022/10/28 00:26:31;;;;;;;14.00;7.78;;;17.00;99.90;;;;;;5119040;27;20124;-71
2022/10/28 00:29:03;;;;;;;16.27;8.00;;;17.00;99.90;;;;;;5118807;28;20447;-72
2022/10/28 00:31:31;;;;;;;19.55;8.95;;;16.90;99.90;;;;;;5118551;28;20092;-72
2022/10/28 00:34:01;;;;;;;13.75;7.72;;;17.00;99.90;;;;;;5118426;28;20060;-71
2022/10/28 00:36:33;;;;;;;16.38;8.95;;;17.10;99.90;;;;;;5118815;28;20039;-71
2022/10/28 00:39:00;;;;;;;22.88;9.20;;;17.10;99.90;;;;;;5118495;28;20440;-71
2022/10/28 00:41:31;;;;;;;18.17;7.82;;;17.20;99.90;;;;;;5118502;28;20421;-71
2022/10/28 00:44:22;;;;;;;17.10;8.65;;;17.20;99.90;;;;;;5118560;28;20104;-71
2022/10/28 00:46:52;;;;;;;20.52;10.30;;;17.10;99.90;;;;;;5118448;28;20118;-71
2022/10/28 00:49:25;;;;;;;20.60;10.30;;;17.10;99.90;;;;;;5118541;28;20187;-71
2022/10/28 00:51:55;;;;;;;23.15;10.60;;;17.10;99.90;;;;;;5116967;28;20040;-71
2022/10/28 00:54:22;;;;;;;17.80;8.90;;;17.10;99.90;;;;;;5118573;28;20065;-72
2022/10/28 00:56:52;;;;;;;23.17;10.18;;;17.20;99.90;;;;;;5118172;28;20461;-72
2022/10/28 00:59:24;;;;;;;18.67;8.57;;;17.20;99.90;;;;;;5118764;28;20360;-71
2022/10/28 01:01:51;;;;;;;17.95;9.27;;;17.00;99.90;;;;;;5118008;28;20371;-71
2022/10/28 01:04:17;;;;;;;19.70;10.50;;;16.90;99.90;;;;;;5117952;28;20043;-72
2022/10/28 01:06:44;;;;;;;20.52;10.57;;;16.90;99.90;;;;;;5117949;28;20039;-72
2022/10/28 01:09:10;;;;;;;22.25;10.90;;;17.00;99.90;;;;;;5117810;28;20057;-72
2022/10/28 01:11:49;;;;;;;24.75;11.02;;;17.10;99.90;;;;;;5118031;28;20031;-72
2022/10/28 01:14:24;;;;;;;25.13;12.60;;;17.10;99.90;;;;;;5117919;28;20420;-72
2022/10/28 01:17:26;;;;;;;27.08;12.48;;;17.30;99.90;;;;;;5117969;28;20080;-71
2022/10/28 01:20:16;;;;;;;27.08;12.70;;;17.30;99.90;;;;;;5117995;28;20047;-71
2022/10/28 01:23:11;;;;;;;24.50;11.10;;;17.30;99.90;;;;;;5117785;28;20078;-71
2022/10/28 01:25:55;;;;;;;21.63;11.88;;;17.40;99.90;;;;;;5062556;28;20060;-72
2022/10/28 01:28:50;;;;;;;17.83;10.70;;;17.40;99.90;;;;;;5117560;28;20075;-72
2022/10/28 01:31:24;;;;;;;17.80;9.43;;;17.40;99.90;;;;;;5117830;28;20039;-72
2022/10/28 01:33:57;;;;;;;15.90;9.25;;;17.40;99.90;;;;;;5116939;28;20043;-72
2022/10/28 01:36:31;;;;;;;17.95;9.02;;;17.30;99.90;;;;;;5116439;28;20427;-72
2022/10/28 01:39:10;;;;;;;26.00;11.63;;;17.30;99.90;;;;;;5117818;28;20402;-71
2022/10/28 01:41:41;;;;;;;22.02;9.75;;;17.20;99.90;;;;;;5116574;28;20310;-71
2022/10/28 01:44:30;;;;;;;18.52;9.40;;;17.10;99.90;;;;;;5117505;28;20447;-71
2022/10/28 01:47:17;;;;;;;16.88;9.07;;;17.10;99.90;;;;;;5109027;28;20043;-71
2022/10/28 01:49:57;;;;;;;17.13;8.50;;;17.00;99.90;;;;;;5117376;28;20036;-71
2022/10/28 01:52:27;;;;;;;16.42;9.20;;;16.90;99.90;;;;;;5117366;28;20032;-71
2022/10/28 01:55:07;;;;;;;14.27;8.55;;;16.90;99.90;;;;;;5117196;28;20044;-71
2022/10/28 01:57:34;;;;;;;15.63;9.32;;;16.80;99.90;;;;;;5117551;28;20040;-71
2022/10/28 02:00:01;;;;;;;13.80;8.80;;;16.80;99.90;;;;;;5117230;28;20108;-71
2022/10/28 02:02:35;;;;;;;15.27;8.30;;;16.80;99.90;;;;;;5116068;28;20083;-72
2022/10/28 02:05:25;;;;;;;13.40;8.57;;;16.70;99.90;;;;;;5117096;28;20031;-71
2022/10/28 02:07:56;;;;;;;18.17;9.32;;;16.70;99.90;;;;;;5116910;28;20043;-71
2022/10/28 02:10:32;;;;;;;18.30;9.55;;;16.70;99.90;;;;;;5117261;28;20036;-71
2022/10/28 02:13:01;;;;;;;;;;;16.70;99.90;;;;;;5117513;28;20332;-71
2022/10/28 02:15:27;;;;;;;15.45;7.68;;;16.70;99.90;;;;;;5116004;28;19941;-71
2022/10/28 02:17:55;;;;;;;21.17;9.88;;;16.50;99.90;;;;;;5116853;28;20039;-71
2022/10/28 02:20:50;;;;;;;17.65;8.70;;;16.40;99.90;;;;;;5116782;28;20470;-72
2022/10/28 02:23:18;;;;;;;14.85;8.65;;;16.40;99.90;;;;;;5116938;28;20036;-71
2022/10/28 02:26:03;;;;;;;15.65;8.88;;;16.40;99.90;;;;;;5115738;28;20071;-71
2022/10/28 02:28:37;;;;;;;12.80;8.35;;;16.50;99.90;;;;;;5098734;28;20039;-72
2022/10/28 02:31:31;;;;;;;18.05;9.30;;;16.40;99.90;;;;;;5116806;28;20039;-71
2022/10/28 02:34:03;;;;;;;16.13;8.02;;;16.40;99.90;;;;;;5116286;28;20063;-71
2022/10/28 02:36:33;;;;;;;13.20;7.85;;;16.30;99.90;;;;;;5116937;28;20075;-71
2022/10/28 02:39:01;;;;;;;19.73;9.20;;;16.20;99.90;;;;;;5116884;28;20093;-72
2022/10/28 02:41:47;;;;;;;17.23;9.18;;;16.20;99.90;;;;;;5116939;28;20036;-72
2022/10/28 02:44:27;;;;;;;17.77;8.23;;;16.20;99.90;;;;;;5116990;28;20044;-71
2022/10/28 02:46:57;;;;;;;20.30;9.63;;;16.10;99.90;;;;;;5115559;28;20039;-72
2022/10/28 02:49:24;;;;;;;13.15;8.23;;;16.20;99.90;;;;;;5117004;28;20096;-71
2022/10/28 02:51:57;;;;;;;19.90;8.30;;;16.10;99.90;;;;;;5115716;28;20071;-71
2022/10/28 02:54:52;;;;;;;18.08;9.70;;;16.10;99.90;;;;;;5116891;28;20049;-71
2022/10/28 02:57:24;;;;;;;15.55;9.20;;;16.10;99.90;;;;;;5108281;28;20048;-71
2022/10/28 02:59:58;;;;;;;23.73;10.63;;;16.10;99.90;;;;;;5116629;28;20039;-72
2022/10/28 03:02:24;;;;;;;18.42;8.85;;;16.10;99.90;;;;;;5116420;28;20042;-72
2022/10/28 03:04:51;;;;;;;18.02;9.40;;;16.10;99.90;;;;;;5116434;28;20118;-71
2022/10/28 03:07:16;;;;;;;20.30;9.93;;;16.10;99.90;;;;;;5116790;28;20396;-72
2022/10/28 03:09:42;;;;;;;21.52;9.43;;;16.10;99.90;;;;;;5116490;28;20071;-71
2022/10/28 03:12:08;;;;;;;13.93;7.90;;;16.10;99.90;;;;;;5116227;28;20038;-72
2022/10/28 03:14:33;;;;;;;20.80;9.27;;;16.10;99.90;;;;;;5117620;28;20039;-72
2022/10/28 03:16:59;;;;;;;15.48;9.07;;;16.10;99.90;;;;;;5120401;28;20048;-74
2022/10/28 03:19:25;;;;;;;20.92;9.40;;;16.10;99.90;;;;;;5120095;28;20089;-71
2022/10/28 03:21:50;;;;;;;26.08;13.20;;;16.10;99.90;;;;;;5120226;28;20067;-71
2022/10/28 03:24:16;;;;;;;16.85;9.15;;;16.10;99.90;;;;;;5120235;28;20302;-71
2022/10/28 03:26:42;;;;;;;17.95;10.55;;;16.10;99.90;;;;;;5119979;28;20302;-71
2022/10/28 03:29:07;;;;;;;21.05;10.77;;;16.20;99.90;;;;;;5120197;28;20090;-72
2022/10/28 03:31:33;;;;;;;21.33;10.52;;;16.20;99.90;;;;;;5119781;28;20040;-71
2022/10/28 03:33:59;;;;;;;16.40;10.05;;;16.20;99.90;;;;;;5119390;28;20090;-72
2022/10/28 03:36:24;;;;;;;18.88;10.63;;;16.20;99.90;;;;;;5119878;28;20039;-72
2022/10/28 03:38:50;;;;;;;26.05;13.32;;;16.20;99.90;;;;;;5119789;28;20051;-72
2022/10/28 03:41:16;;;;;;;20.48;10.77;;;16.10;99.90;;;;;;5119710;28;20104;-72
2022/10/28 03:43:41;;;;;;;18.80;10.82;;;16.10;99.90;;;;;;5119809;28;20032;-72
2022/10/28 03:46:07;;;;;;;16.08;9.93;;;16.10;99.90;;;;;;5119931;28;20031;-72
2022/10/28 03:48:33;;;;;;;15.80;9.63;;;16.00;99.90;;;;;;5119714;28;20335;-71
2022/10/28 03:50:58;;;;;;;19.13;10.98;;;16.00;99.90;;;;;;5119866;27;20113;-72
2022/10/28 03:53:24;;;;;;;18.35;10.25;;;16.00;99.90;;;;;;5119517;28;20085;-71
2022/10/28 03:55:57;;;;;;;26.27;13.48;;;16.00;99.90;;;;;;5118598;28;20047;-72
2022/10/28 03:58:24;;;;;;;22.95;13.32;;;16.00;99.90;;;;;;5119421;28;20416;-71
2022/10/28 04:00:51;;;;;;;17.35;10.55;;;15.90;99.90;;;;;;5119263;28;20509;-71
2022/10/28 04:03:18;;;;;;;18.55;10.30;;;15.90;99.90;;;;;;5118936;28;20430;-71
2022/10/28 04:05:44;;;;;;;24.20;14.02;;;15.90;99.90;;;;;;5119143;28;20370;-71
2022/10/28 04:08:10;;;;;;;23.27;12.63;;;15.90;99.90;;;;;;5119135;28;20035;-72
2022/10/28 04:10:36;;;;;;;25.38;11.75;;;15.90;99.90;;;;;;5119177;28;20332;-72
2022/10/28 04:13:03;;;;;;;25.77;14.75;;;15.90;99.90;;;;;;5119219;28;20118;-72
2022/10/28 04:15:29;;;;;;;36.97;14.38;;;15.90;99.90;;;;;;5119099;28;20032;-72
2022/10/28 04:17:55;;;;;;;19.95;11.10;;;15.90;99.90;;;;;;5118938;28;20032;-72
2022/10/28 04:20:21;;;;;;;29.58;15.60;;;15.90;99.90;;;;;;5119882;28;20433;-71
2022/10/28 04:22:46;;;;;;;23.38;12.25;;;15.90;99.90;;;;;;5117917;28;20371;-72
2022/10/28 04:25:12;;;;;;;28.65;14.80;;;15.90;99.90;;;;;;5118589;28;20043;-72
2022/10/28 04:27:38;;;;;;;23.25;11.05;;;15.90;99.90;;;;;;5118232;28;20067;-71
2022/10/28 04:30:04;;;;;;;24.38;12.43;;;15.90;99.90;;;;;;5117743;28;20085;-71
2022/10/28 04:32:30;;;;;;;19.42;11.85;;;15.80;99.90;;;;;;5118364;27;20046;-71
2022/10/28 04:34:56;;;;;;;20.50;11.50;;;15.80;99.90;;;;;;5117550;28;20131;-71
2022/10/28 04:37:21;;;;;;;18.60;12.68;;;15.80;99.90;;;;;;5118604;28;20383;-72
2022/10/28 04:39:47;;;;;;;20.80;11.73;;;15.80;99.90;;;;;;5118416;28;20043;-71
2022/10/28 04:42:13;;;;;;;22.67;11.80;;;15.80;99.90;;;;;;5118805;28;20043;-71
2022/10/28 04:44:38;;;;;;;21.15;11.88;;;15.80;99.90;;;;;;5118529;28;20051;-71
2022/10/28 04:47:04;;;;;;;32.22;13.43;;;15.70;99.90;;;;;;5118739;28;20409;-71
2022/10/28 04:49:30;;;;;;;22.20;13.13;;;15.60;99.90;;;;;;5100562;28;20040;-71
2022/10/28 04:51:56;;;;;;;34.00;14.05;;;15.60;99.90;;;;;;5118339;28;20035;-72
2022/10/28 04:54:21;;;;;;;28.48;12.15;;;15.60;99.90;;;;;;5118141;28;20036;-71
2022/10/28 04:56:47;;;;;;;23.90;13.15;;;15.50;99.90;;;;;;5118287;28;20161;-71
2022/10/28 04:59:13;;;;;;;25.05;13.45;;;15.50;99.90;;;;;;5118228;28;20040;-71
2022/10/28 05:01:38;;;;;;;39.15;15.77;;;15.50;99.90;;;;;;5118114;28;20429;-71
2022/10/28 05:04:04;;;;;;;24.13;12.45;;;15.50;99.90;;;;;;5117720;28;20044;-72
2022/10/28 05:06:30;;;;;;;29.90;12.70;;;15.50;99.90;;;;;;5118003;28;20080;-71
2022/10/28 05:08:55;;;;;;;22.73;12.90;;;15.50;99.90;;;;;;5118276;28;20413;-71
2022/10/28 05:11:21;;;;;;;23.63;12.70;;;15.50;99.90;;;;;;5118113;28;20051;-72
2022/10/28 05:13:47;;;;;;;32.10;15.77;;;15.60;99.90;;;;;;5118068;28;20042;-72
2022/10/28 05:16:12;;;;;;;30.25;14.68;;;15.60;99.90;;;;;;5100042;28;20058;-72
2022/10/28 05:18:38;;;;;;;29.23;13.05;;;15.70;99.90;;;;;;5116764;28;20055;-75
2022/10/28 05:21:04;;;;;;;27.83;14.38;;;15.80;99.90;;;;;;5117793;28;20046;-71
2022/10/28 05:23:29;;;;;;;32.80;15.73;;;15.70;99.90;;;;;;5117440;28;20377;-72
2022/10/28 05:25:55;;;;;;;30.27;15.27;;;15.70;99.90;;;;;;5117991;28;20035;-71
2022/10/28 05:28:21;;;;;;;16.92;11.98;;;15.70;99.90;;;;;;5117799;28;20328;-71
2022/10/28 05:30:47;;;;;;;34.53;15.70;;;15.60;99.90;;;;;;5116683;28;20114;-71
2022/10/28 05:33:12;;;;;;;22.98;13.30;;;15.60;99.90;;;;;;5117078;28;20075;-72
2022/10/28 05:35:39;;;;;;;20.55;13.20;;;15.60;99.90;;;;;;5117811;28;20370;-71
2022/10/28 05:38:05;;;;;;;26.42;12.82;;;15.60;99.90;;;;;;5117207;28;20035;-71
2022/10/28 05:40:32;;;;;;;24.02;14.18;;;15.50;99.90;;;;;;5117620;28;20088;-71
2022/10/28 05:42:58;;;;;;;27.77;14.27;;;15.60;99.90;;;;;;5117604;28;20044;-71
2022/10/28 05:45:24;;;;;;;24.15;13.45;;;15.50;99.90;;;;;;5117388;28;20040;-71
2022/10/28 05:47:50;;;;;;;20.33;12.02;;;15.50;99.90;;;;;;5116558;28;20092;-71
2022/10/28 05:50:17;;;;;;;21.98;12.65;;;15.50;99.90;;;;;;5117252;28;20420;-71
2022/10/28 05:52:55;;;;;;;20.30;11.90;;;15.50;99.90;;;;;;5117523;28;20039;-71
2022/10/28 05:55:23;;;;;;;39.92;18.30;;;15.50;99.90;;;;;;5117407;28;20043;-72
2022/10/28 05:57:50;;;;;;;25.13;12.55;;;15.50;99.90;;;;;;5117147;28;20047;-72
2022/10/28 06:00:18;;;;;;;16.40;10.77;;;15.40;99.90;;;;;;5117315;28;20035;-72
2022/10/28 06:02:44;;;;;;;25.48;13.70;;;15.40;99.90;;;;;;5116828;28;20039;-71
2022/10/28 06:05:11;;;;;;;23.55;12.88;;;15.40;99.90;;;;;;5116764;28;20073;-71
2022/10/28 06:07:38;;;;;;;22.25;11.32;;;15.40;99.90;;;;;;5117225;28;20039;-72
2022/10/28 06:10:05;;;;;;;24.67;11.35;;;15.30;99.90;;;;;;5117278;28;20043;-71
2022/10/28 06:12:31;;;;;;;23.30;14.10;;;15.30;99.90;;;;;;5116205;28;20370;-71
2022/10/28 06:14:56;;;;;;;26.98;12.50;;;15.30;99.90;;;;;;5117269;28;20110;-71
2022/10/28 06:17:22;;;;;;;26.90;14.05;;;15.30;99.90;;;;;;5116997;28;20031;-72
2022/10/28 06:19:48;;;;;;;21.10;11.73;;;15.20;99.90;;;;;;5115888;28;20047;-71
2022/10/28 06:22:13;;;;;;;19.30;11.25;;;15.30;99.90;;;;;;5116918;28;20035;-72
2022/10/28 06:24:39;;;;;;;25.05;13.20;;;15.30;99.90;;;;;;5116990;28;20472;-72
2022/10/28 06:27:05;;;;;;;36.25;15.43;;;15.30;99.90;;;;;;5116775;28;20093;-71
2022/10/28 06:29:32;;;;;;;35.63;15.93;;;15.40;99.90;;;;;;5116757;28;20114;-71
2022/10/28 06:31:57;;;;;;;25.58;12.43;;;15.30;99.90;;;;;;5116007;28;20040;-71
2022/10/28 06:34:23;;;;;;;22.90;12.23;;;15.40;99.90;;;;;;5115941;28;20062;-69
2022/10/28 06:36:49;;;;;;;24.60;13.05;;;15.40;99.90;;;;;;5116972;28;20043;-69
2022/10/28 06:39:15;;;;;;;20.92;12.02;;;15.50;99.90;;;;;;5116717;28;20058;-69
2022/10/28 06:41:40;;;;;;;31.50;15.15;;;15.60;99.90;;;;;;5116755;28;20035;-69
2022/10/28 06:44:06;;;;;;;25.73;13.68;;;15.50;99.90;;;;;;5116631;28;20062;-68
2022/10/28 06:46:32;;;;;;;37.03;17.15;;;15.60;99.90;;;;;;5116565;28;20114;-73
2022/10/28 06:49:01;;;;;;;35.45;14.85;;;15.60;99.90;;;;;;5116980;28;20044;-71
2022/10/28 06:51:28;;;;;;;32.00;16.63;;;15.50;99.90;;;;;;5120767;27;20039;-69
2022/10/28 06:53:53;;;;;;;27.38;15.85;;;15.60;99.90;;;;;;5120933;28;20043;-70
2022/10/28 06:56:19;;;;;;;27.45;14.00;;;15.60;99.90;;;;;;5120515;28;20058;-69
2022/10/28 06:58:49;;;;;;;26.60;14.07;;;15.60;99.90;;;;;;5119477;28;20079;-70
2022/10/28 07:01:15;;;;;;;27.67;13.93;;;15.70;99.90;;;;;;5120579;28;20092;-70
2022/10/28 07:03:40;;;;;;;33.78;15.40;;;15.70;99.90;;;;;;5119902;28;20039;-70
2022/10/28 07:06:06;;;;;;;27.35;13.77;;;15.60;99.90;;;;;;5119381;28;20048;-70
2022/10/28 07:08:32;;;;;;;25.65;12.55;;;15.70;99.90;;;;;;5120439;28;20039;-70
2022/10/28 07:10:59;;;;;;;31.02;15.10;;;15.80;99.90;;;;;;5120295;27;20079;-70
2022/10/28 07:13:25;;;;;;;25.10;13.93;;;15.80;99.90;;;;;;5120379;28;20118;-69
2022/10/28 07:15:56;;;;;;;31.33;14.38;;;15.70;99.90;;;;;;5119195;28;20049;-70
2022/10/28 07:18:23;;;;;;;33.13;13.82;;;15.80;99.90;;;;;;5120349;28;20036;-70
2022/10/28 07:20:49;;;;;;;25.30;12.65;;;15.90;99.90;;;;;;5120436;28;20067;-70
2022/10/28 07:23:15;;;;;;;26.73;13.20;;;15.90;99.90;;;;;;5120019;28;20090;-70
2022/10/28 07:25:41;;;;;;;22.73;12.82;;;15.90;99.90;;;;;;5119105;28;20035;-70
2022/10/28 07:28:07;;;;;;;24.58;13.40;;;15.80;99.90;;;;;;5120010;28;20084;-70
2022/10/28 07:30:33;;;;;;;26.65;13.25;;;15.90;99.90;;;;;;5118927;28;20367;-70
2022/10/28 07:32:59;;;;;;;30.98;14.65;;;15.90;99.90;;;;;;5118265;28;20035;-72
2022/10/28 07:35:30;;;;;;;27.45;13.15;;;16.00;99.90;;;;;;5118959;28;20048;-71
2022/10/28 07:37:56;;;;;;;22.60;12.63;;;16.00;99.90;;;;;;5120087;28;20078;-69
2022/10/28 07:40:23;;;;;;;25.83;12.90;;;16.00;99.90;;;;;;5118914;28;20050;-69
2022/10/28 07:42:49;;;;;;;25.30;12.82;;;16.10;99.90;;;;;;5119746;27;20124;-69
2022/10/28 07:45:16;;;;;;;32.22;13.60;;;16.00;99.90;;;;;;5119451;28;20047;-69
2022/10/28 07:47:43;;;;;;;23.45;11.70;;;16.20;99.90;;;;;;5119682;28;20043;-69
2022/10/28 07:50:09;;;;;;;24.67;12.23;;;16.20;99.90;;;;;;5120110;28;20328;-69
2022/10/28 07:52:35;;;;;;;26.45;11.75;;;16.30;99.90;;;;;;5118538;28;20039;-70
2022/10/28 07:55:06;;;;;;;24.42;11.02;;;16.40;99.90;;;;;;5119511;28;20123;-69
2022/10/28 07:57:33;;;;;;;26.65;12.70;;;16.40;99.90;;;;;;5119492;28;20336;-70
2022/10/28 07:59:59;;;;;;;22.40;11.98;;;16.50;99.90;;;;;;5119602;27;20077;-70
2022/10/28 08:02:25;;;;;;;26.20;10.93;;;16.60;99.90;;;;;;5118756;28;20039;-73
2022/10/28 08:04:51;;;;;;;21.90;10.30;;;16.70;99.90;;;;;;5118309;28;20345;-70
2022/10/28 08:07:18;;;;;;;24.23;10.68;;;16.70;99.90;;;;;;5119202;28;20109;-70
2022/10/28 08:09:44;;;;;;;19.85;10.00;;;16.70;99.90;;;;;;5119106;28;20031;-69
2022/10/28 08:12:12;;;;;;;19.40;10.07;;;16.80;99.90;;;;;;5119037;28;20061;-70
2022/10/28 08:14:38;;;;;;;26.02;10.02;;;16.90;99.90;;;;;;5118285;28;20043;-69
2022/10/28 08:17:04;;;;;;;22.65;10.25;;;17.00;99.90;;;;;;5119304;28;20062;-70
2022/10/28 08:19:29;;;;;;;24.48;10.13;;;17.10;99.90;;;;;;5117962;28;20084;-69
2022/10/28 08:21:55;;;;;;;25.25;9.57;;;17.20;99.90;;;;;;5118849;28;20054;-69
2022/10/28 08:24:21;;;;;;;17.90;8.98;;;17.20;99.90;;;;;;5118679;28;20040;-69
2022/10/28 08:26:47;;;;;;;22.00;9.55;;;17.20;99.90;;;;;;5118817;27;20043;-70
2022/10/28 08:29:12;;;;;;;17.45;9.20;;;17.20;99.90;;;;;;5117802;28;20421;-69
2022/10/28 08:31:38;;;;;;;22.15;8.60;;;17.20;99.90;;;;;;5119215;28;20039;-69
2022/10/28 08:34:05;;;;;;;15.95;8.40;;;17.20;99.90;;;;;;5118161;28;20449;-69
2022/10/28 08:36:31;;;;;;;16.08;7.55;;;17.20;99.90;;;;;;5118614;28;20417;-69
2022/10/28 08:38:59;;;;;;;20.45;8.52;;;17.30;99.90;;;;;;5118854;28;20088;-69
2022/10/28 08:41:43;;;;;;;18.38;8.27;;;17.40;99.90;;;;;;5117400;28;20050;-70
2022/10/28 08:44:30;;;;;;;20.55;8.80;;;17.40;99.90;;;;;;5118640;28;20161;-70
2022/10/28 08:47:12;;;;;;;18.60;8.50;;;17.60;99.90;;;;;;5117791;28;20043;-69
2022/10/28 08:49:40;;;;;;;21.92;7.82;;;17.70;99.90;;;;;;5118495;28;20051;-69
2022/10/28 08:52:24;;;;;;;20.15;8.38;;;17.80;99.90;;;;;;5118452;28;20036;-69
2022/10/28 08:54:58;;;;;;;23.25;7.88;;;18.00;99.90;;;;;;5117384;28;20058;-69
2022/10/28 08:58:07;;;;;;;20.85;7.60;;;17.90;99.90;;;;;;5100121;28;20047;-69
2022/10/28 09:00:35;;;;;;;21.63;7.68;;;18.00;99.90;;;;;;5109788;28;20310;-70
2022/10/28 09:03:21;;;;;;;17.75;7.60;;;18.10;99.90;;;;;;5117596;27;20035;-69
2022/10/28 09:05:52;;;;;;;25.70;7.90;;;18.10;99.90;;;;;;5107196;28;20052;-70
2022/10/28 09:08:27;;;;;;;19.63;7.15;;;18.10;99.90;;;;;;5118318;28;20073;-71
2022/10/28 09:11:07;;;;;;;27.67;7.80;;;18.10;99.90;;;;;;5118031;28;20105;-70
2022/10/28 09:14:03;;;;;;;23.30;7.63;;;18.20;99.90;;;;;;5117710;28;20078;-71
2022/10/28 09:16:47;;;;;;;23.90;8.52;;;18.20;99.90;;;;;;5117907;28;20169;-71
2022/10/28 09:19:35;;;;;;;20.20;6.88;;;18.20;99.90;;;;;;5116996;28;20036;-71
2022/10/28 09:22:26;;;;;;;21.13;6.97;;;18.30;99.90;;;;;;5099637;28;20127;-70
2022/10/28 09:24:52;;;;;;;20.17;7.57;;;18.10;99.90;;;;;;5116896;28;20071;-70
2022/10/28 09:27:38;;;;;;;22.73;8.10;;;18.20;99.90;;;;;;5116871;28;20506;-70
2022/10/28 09:30:29;;;;;;;19.08;7.78;;;18.30;99.90;;;;;;5117810;28;20080;-70
2022/10/28 09:33:17;;;;;;;18.75;7.70;;;18.50;99.90;;;;;;5116783;28;20048;-70
2022/10/28 09:35:46;;;;;;;15.75;7.22;;;18.50;99.90;;;;;;5117705;28;20122;-72
2022/10/28 09:38:14;;;;;;;16.83;7.38;;;18.50;99.90;;;;;;5117565;28;20123;-71
2022/10/28 09:40:43;;;;;;;18.10;7.45;;;18.60;99.90;;;;;;5117238;28;20039;-71
2022/10/28 09:43:26;;;;;;;19.08;8.05;;;18.70;99.90;;;;;;5117321;27;20040;-70
2022/10/28 09:45:57;;;;;;;19.60;7.60;;;18.70;99.90;;;;;;5116205;28;20078;-70
2022/10/28 09:48:32;;;;;;;15.23;6.63;;;18.80;99.90;;;;;;5117467;28;20123;-71
2022/10/28 09:50:59;;;;;;;18.63;7.80;;;18.80;99.90;;;;;;5117552;28;20040;-70
2022/10/28 09:53:48;;;;;;;18.30;7.05;;;18.70;99.90;;;;;;5117514;27;20053;-70
2022/10/28 09:56:14;;;;;;;13.68;7.40;;;18.70;99.90;;;;;;5116045;28;20047;-70
2022/10/28 09:58:45;;;;;;;15.88;6.43;;;18.80;99.90;;;;;;5116119;28;20043;-71
2022/10/28 10:01:12;;;;;;;20.48;7.20;;;18.80;99.90;;;;;;5116545;27;20039;-71
2022/10/28 10:03:38;;;;;;;15.18;6.57;;;18.90;99.90;;;;;;5124978;27;20035;-71
2022/10/28 10:06:22;;;;;;;22.00;6.93;;;18.90;99.90;;;;;;5137350;27;20118;-70
2022/10/28 10:08:47;;;;;;;20.27;7.30;;;19.00;99.90;;;;;;5121156;27;20070;-70
2022/10/28 10:11:47;;;;;;;23.30;6.88;;;19.00;99.90;;;;;;5098423;28;20071;-71
2022/10/28 10:14:20;;;;;;;17.08;8.00;;;19.10;99.90;;;;;;5072400;28;20113;-70
2022/10/28 10:16:58;;;;;;;15.57;6.82;;;19.10;99.90;;;;;;5098683;28;20051;-71
2022/10/28 10:19:24;;;;;;;18.63;7.45;;;19.10;99.90;;;;;;5116520;28;20487;-72
2022/10/28 10:21:53;;;;;;;16.95;6.60;;;19.10;99.90;;;;;;5116601;28;20075;-70
2022/10/28 10:24:22;;;;;;;16.20;6.90;;;19.20;99.90;;;;;;5102693;28;20043;-71
2022/10/28 10:26:49;;;;;;;20.70;6.82;;;19.20;99.90;;;;;;5119335;28;20039;-73
2022/10/28 10:29:15;;;;;;;22.60;6.82;;;19.30;99.90;;;;;;5137098;28;20088;-72
2022/10/28 10:31:41;;;;;;;16.88;6.90;;;19.40;99.90;;;;;;5118725;28;20122;-71
2022/10/28 10:34:20;;;;;;;22.40;6.72;;;19.50;99.90;;;;;;5136152;28;20104;-70
2022/10/28 10:36:54;;;;;;;24.10;5.80;;;19.60;99.90;;;;;;5137368;28;20054;-71
2022/10/28 10:39:29;;;;;;;19.65;7.10;;;19.60;99.90;;;;;;5134192;28;20039;-71
2022/10/28 10:41:55;;;;;;;20.02;6.65;;;19.60;99.90;;;;;;5109229;28;20051;-70
2022/10/28 10:44:20;;;;;;;12.90;5.88;;;19.50;99.90;;;;;;5118512;28;20042;-71
2022/10/28 10:47:09;;;;;;;19.67;6.15;;;19.60;99.90;;;;;;5100948;28;20067;-70
2022/10/28 10:49:35;;;;;;;16.92;6.45;;;19.70;99.90;;;;;;5115931;28;20039;-71
2022/10/28 10:52:20;;;;;;;12.35;5.85;;;19.60;99.90;;;;;;5125481;28;20035;-71
2022/10/28 10:55:04;;;;;;;19.63;5.70;;;19.80;99.90;;;;;;5135953;28;20054;-71
2022/10/28 10:57:31;;;;;;;16.13;5.95;;;19.80;99.90;;;;;;5137118;28;20043;-68
2022/10/28 10:59:57;;;;;;;18.60;6.20;;;20.00;99.90;;;;;;5118766;28;20051;-67
2022/10/28 11:02:38;;;;;;;11.70;5.30;;;20.10;99.90;;;;;;5137265;28;20035;-68
2022/10/28 11:05:07;;;;;;;47.65;6.32;;;20.20;99.90;;;;;;5137111;28;20099;-70
2022/10/28 11:07:34;;;;;;;21.58;6.13;;;20.40;99.90;;;;;;5137145;28;20043;-70
2022/10/28 11:10:01;;;;;;;16.95;5.95;;;20.60;99.90;;;;;;5119048;28;20184;-70
2022/10/28 11:12:35;;;;;;;18.77;5.47;;;20.60;99.90;;;;;;5118908;28;20035;-71
2022/10/28 11:15:15;;;;;;;19.58;6.55;;;20.50;99.90;;;;;;5118725;28;20046;-70
2022/10/28 11:17:58;;;;;;;14.05;6.13;;;20.40;99.90;;;;;;5136788;28;20111;-70
2022/10/28 11:20:57;;;;;;;15.45;5.35;;;20.40;99.90;;;;;;5137124;28;20050;-70
2022/10/28 11:23:58;;;;;;;20.17;5.30;;;20.60;99.90;;;;;;5123179;28;20058;-71
2022/10/28 11:26:24;;;;;;;19.98;5.60;;;20.80;99.90;;;;;;5017217;28;20091;-68
2022/10/28 11:29:14;;;;;;;15.27;5.18;;;21.20;99.90;;;;;;5115608;28;20055;-68
2022/10/28 11:31:46;;;;;;;15.68;4.55;;;21.50;99.90;;;;;;5137138;28;20031;-68
2022/10/28 11:34:27;;;;;;;18.05;4.80;;;21.80;99.90;;;;;;5118058;28;20058;-68
2022/10/28 11:37:13;;;;;;;19.92;5.28;;;21.90;99.90;;;;;;5121916;27;20047;-69
2022/10/28 11:40:09;;;;;;;12.63;5.03;;;22.10;99.80;;;;;;5140349;27;20038;-68
2022/10/28 11:42:49;;;;;;;14.27;5.28;;;22.10;99.90;;;;;;5140242;27;20085;-67
2022/10/28 11:45:34;;;;;;;13.90;5.78;;;22.20;99.90;;;;;;5140468;27;20126;-83
2022/10/28 11:48:28;;;;;;;19.40;5.35;;;21.90;99.90;;;;;;5105249;27;20440;-79
2022/10/28 11:51:12;;;;;;;15.10;5.40;;;21.80;99.90;;;;;;5122125;27;20324;-69
2022/10/28 11:53:50;;;;;;;20.92;5.07;;;21.80;99.90;;;;;;5140380;27;20046;-68
2022/10/28 11:56:18;;;;;;;21.60;5.70;;;21.80;99.90;;;;;;5140076;27;20032;-80
2022/10/28 11:59:20;;;;;;;18.02;5.50;;;21.70;99.90;;;;;;5122108;27;20115;-75
2022/10/28 12:02:20;;;;;;;13.50;4.93;;;21.40;99.90;;;;;;5121573;27;20424;-77
2022/10/28 12:05:14;;;;;;;21.25;6.57;;;21.30;99.90;;;;;;5121127;27;20043;-76
2022/10/28 12:07:52;;;;;;;28.00;9.13;;;21.40;99.90;;;;;;5121647;27;20485;-76
2022/10/28 12:10:34;;;;;;;15.35;5.50;;;21.30;99.90;;;;;;5139733;27;20046;-76
2022/10/28 12:13:44;;;;;;;24.70;6.75;;;21.20;99.90;;;;;;5121471;27;20043;-76
2022/10/28 12:16:21;;;;;;;40.65;10.25;;;21.20;99.90;;;;;;5003750;28;20064;-77
2022/10/28 12:18:59;;;;;;;19.85;5.55;;;21.20;99.90;;;;;;5132832;27;20078;-77
2022/10/28 12:21:34;;;;;;;19.05;6.40;;;21.10;99.90;;;;;;5121246;27;20436;-77
2022/10/28 12:24:02;;;;;;;22.80;5.95;;;21.20;99.90;;;;;;5139324;27;20432;-77
2022/10/28 12:26:39;;;;;;;19.58;5.07;;;21.00;99.90;;;;;;5139357;27;20109;-77
2022/10/28 12:29:16;;;;;;;23.30;6.00;;;20.90;99.90;;;;;;5121583;27;20035;-74
2022/10/28 12:31:46;;;;;;;14.02;5.47;;;20.80;99.90;;;;;;5139345;27;20117;-72
2022/10/28 12:34:23;;;;;;;22.92;5.35;;;20.90;99.90;;;;;;5138835;27;20063;-68
2022/10/28 12:37:03;;;;;;;25.70;5.82;;;21.00;99.90;;;;;;5121250;27;20078;-68
2022/10/28 12:39:38;;;;;;;21.92;5.85;;;21.10;99.90;;;;;;5139439;27;20104;-69
2022/10/28 12:42:30;;;;;;;16.95;5.68;;;21.10;99.90;;;;;;5139394;27;20039;-70
2022/10/28 12:44:58;;;;;;;19.15;5.80;;;21.00;99.90;;;;;;5139119;27;20047;-70
2022/10/28 12:47:30;;;;;;;15.48;5.53;;;21.00;99.90;;;;;;5119973;27;20051;-68
2022/10/28 12:50:07;;;;;;;15.93;5.50;;;21.10;99.90;;;;;;5138853;27;20035;-69
2022/10/28 12:52:51;;;;;;;17.23;5.60;;;21.30;99.90;;;;;;5138878;27;20045;-68
2022/10/28 12:55:41;;;;;;;14.00;5.70;;;21.30;99.90;;;;;;5120701;27;20062;-69
2022/10/28 12:58:34;;;;;;;21.85;5.72;;;21.20;99.90;;;;;;5138766;27;20502;-69